Time;durP1;ratioP1;P1;durP2;ratioP2;P2;SDS_P1;SDS_P2;PMS_P1;PMS_P2;Temp;Humidity;BMP_temperature;BMP_pressure;BME280_temperature;BME280_humidity;BME280_pressure;Samples;Min_cycle;Max_cycle;Signal;HPM_P1;HPM_P2
2024/03/04 00:01:12;;;;;;;60.08;22.27;;;4.70;99.90;;;;;;5036283;28;20086;-64
2024/03/04 00:03:38;;;;;;;59.42;24.88;;;4.80;99.90;;;;;;5035543;28;20096;-65
2024/03/04 00:06:04;;;;;;;63.53;24.10;;;4.90;99.90;;;;;;5039921;28;20036;-64
2024/03/04 00:08:31;;;;;;;55.97;23.48;;;5.10;99.90;;;;;;5037651;28;20504;-64
2024/03/04 00:10:57;;;;;;;57.72;23.35;;;5.30;99.90;;;;;;5041515;28;20025;-64
2024/03/04 00:13:23;;;;;;;59.25;24.17;;;5.40;99.90;;;;;;5044086;28;20460;-65
2024/03/04 00:15:49;;;;;;;58.03;22.48;;;5.50;99.90;;;;;;5038614;28;20114;-64
2024/03/04 00:18:14;;;;;;;54.55;22.38;;;5.60;99.90;;;;;;5034271;28;20104;-64
2024/03/04 00:20:40;;;;;;;44.92;20.08;;;5.80;99.90;;;;;;5035696;28;20100;-63
2024/03/04 00:23:06;;;;;;;47.47;20.77;;;5.90;99.90;;;;;;5041420;28;20572;-64
2024/03/04 00:25:32;;;;;;;44.20;17.33;;;6.10;99.90;;;;;;5038310;28;20033;-64
2024/03/04 00:27:57;;;;;;;45.42;19.33;;;6.10;99.90;;;;;;5044822;28;20115;-63
2024/03/04 00:30:26;;;;;;;40.58;18.33;;;6.20;99.90;;;;;;5040167;28;20017;-64
2024/03/04 00:32:52;;;;;;;40.75;18.00;;;6.20;99.90;;;;;;5042779;28;20350;-63
2024/03/04 00:35:19;;;;;;;39.92;17.33;;;6.40;99.90;;;;;;5040346;28;20036;-63
2024/03/04 00:37:46;;;;;;;37.50;17.38;;;6.20;99.90;;;;;;5046587;28;20086;-62
2024/03/04 00:40:12;;;;;;;39.17;17.52;;;6.20;99.90;;;;;;5040586;28;20442;-63
2024/03/04 00:42:38;;;;;;;31.77;13.07;;;6.20;99.90;;;;;;5039647;28;20298;-62
2024/03/04 00:45:05;;;;;;;37.40;15.05;;;6.40;99.90;;;;;;5039582;28;20120;-62
2024/03/04 00:47:32;;;;;;;35.35;16.63;;;6.30;99.90;;;;;;5040111;28;20017;-63
2024/03/04 00:49:57;;;;;;;37.45;17.92;;;6.40;99.90;;;;;;5038789;28;20044;-63
2024/03/04 00:52:23;;;;;;;34.42;15.52;;;6.50;99.90;;;;;;5042024;28;20656;-63
2024/03/04 00:54:50;;;;;;;42.40;18.02;;;6.50;99.90;;;;;;5037062;28;20442;-62
2024/03/04 00:57:15;;;;;;;41.30;17.55;;;6.60;99.90;;;;;;5038841;28;20037;-62
2024/03/04 00:59:41;;;;;;;38.60;17.40;;;6.60;99.90;;;;;;5040200;28;20056;-63
2024/03/04 01:02:07;;;;;;;36.60;15.23;;;6.60;99.90;;;;;;5041156;28;20035;-63
2024/03/04 01:04:33;;;;;;;41.22;18.77;;;6.60;99.90;;;;;;5039103;28;20117;-63
2024/03/04 01:06:59;;;;;;;45.03;18.98;;;6.60;99.90;;;;;;5042325;28;20032;-63
2024/03/04 01:09:25;;;;;;;44.33;19.80;;;6.60;99.90;;;;;;5035223;28;20038;-66
2024/03/04 01:11:53;;;;;;;41.35;19.25;;;6.50;99.90;;;;;;5039370;28;20031;-64
2024/03/04 01:14:19;;;;;;;33.55;15.85;;;6.50;99.90;;;;;;5039332;28;20048;-65
2024/03/04 01:16:48;;;;;;;47.30;20.80;;;6.50;99.90;;;;;;5040761;28;20025;-65
2024/03/04 01:19:13;;;;;;;46.22;22.30;;;6.50;99.90;;;;;;5039461;28;20024;-64
2024/03/04 01:21:39;;;;;;;37.92;16.83;;;6.50;99.90;;;;;;5038542;28;20036;-65
2024/03/04 01:24:06;;;;;;;27.80;12.20;;;6.60;99.90;;;;;;5037662;28;20034;-63
2024/03/04 01:26:32;;;;;;;57.58;26.35;;;6.60;99.90;;;;;;5042829;28;20034;-63
2024/03/04 01:28:58;;;;;;;57.80;26.15;;;6.60;99.90;;;;;;5036818;28;20067;-64
2024/03/04 01:31:24;;;;;;;57.47;26.20;;;6.60;99.90;;;;;;5041356;28;20029;-64
2024/03/04 01:33:50;;;;;;;58.15;28.17;;;6.60;99.90;;;;;;5036873;28;20029;-63
2024/03/04 01:36:17;;;;;;;57.05;26.48;;;6.70;99.90;;;;;;5047206;28;20029;-64
2024/03/04 01:38:43;;;;;;;66.05;28.75;;;6.80;99.90;;;;;;5039165;28;20032;-64
2024/03/04 01:41:09;;;;;;;46.70;20.50;;;6.80;99.90;;;;;;5042992;28;20029;-64
2024/03/04 01:43:35;;;;;;;56.08;27.17;;;7.00;99.90;;;;;;5037471;28;20032;-64
2024/03/04 01:46:01;;;;;;;56.30;23.58;;;7.00;99.90;;;;;;5042056;28;20661;-66
2024/03/04 01:48:27;;;;;;;62.95;26.40;;;7.10;99.90;;;;;;5041570;28;20414;-64
2024/03/04 01:50:57;;;;;;;75.15;30.50;;;7.10;99.90;;;;;;5036859;28;20021;-63
2024/03/04 01:53:25;;;;;;;58.30;23.08;;;7.20;99.90;;;;;;5040921;28;20028;-65
2024/03/04 01:56:02;;;;;;;48.78;22.27;;;7.20;99.90;;;;;;5045353;28;20032;-63
2024/03/04 01:58:30;;;;;;;68.50;28.77;;;7.30;99.90;;;;;;5038693;28;20071;-63
2024/03/04 02:00:59;;;;;;;61.92;29.52;;;7.30;99.90;;;;;;5037380;28;20029;-65
2024/03/04 02:03:26;;;;;;;76.13;29.02;;;7.30;99.90;;;;;;5037316;28;20033;-65
2024/03/04 02:05:54;;;;;;;79.25;30.67;;;7.40;99.90;;;;;;5039231;28;20036;-65
2024/03/04 02:08:20;;;;;;;76.00;29.30;;;7.40;99.90;;;;;;5033192;28;20395;-65
2024/03/04 02:10:48;;;;;;;73.10;32.60;;;7.40;99.90;;;;;;5039073;28;20048;-64
2024/03/04 02:13:14;;;;;;;71.93;28.25;;;7.40;99.90;;;;;;5037733;28;20053;-65
2024/03/04 02:15:40;;;;;;;68.32;29.05;;;7.40;99.90;;;;;;5033457;28;20060;-65
2024/03/04 02:18:07;;;;;;;80.90;31.80;;;7.40;99.90;;;;;;5036734;28;20061;-65
2024/03/04 02:20:40;;;;;;;78.25;35.58;;;7.50;99.90;;;;;;5037315;28;20575;-66
2024/03/04 02:23:08;;;;;;;71.40;31.90;;;7.50;99.90;;;;;;5039604;28;20532;-65
2024/03/04 02:25:35;;;;;;;79.70;29.83;;;7.50;99.90;;;;;;5034606;28;20065;-66
2024/03/04 02:28:02;;;;;;;74.68;33.15;;;7.50;99.90;;;;;;5042598;28;20030;-64
2024/03/04 02:30:31;;;;;;;78.78;32.95;;;7.50;99.90;;;;;;5040174;28;20013;-63
2024/03/04 02:32:57;;;;;;;65.95;30.52;;;7.50;99.90;;;;;;5035816;28;20104;-63
2024/03/04 02:35:27;;;;;;;79.35;32.13;;;7.50;99.90;;;;;;5038497;28;20031;-64
2024/03/04 02:37:53;;;;;;;75.90;36.08;;;7.50;99.90;;;;;;5040067;28;20025;-63
2024/03/04 02:40:19;;;;;;;70.40;27.55;;;7.40;99.90;;;;;;5037836;28;20063;-63
2024/03/04 02:42:44;;;;;;;80.57;36.03;;;7.50;99.90;;;;;;5036734;28;20030;-65
2024/03/04 02:45:10;;;;;;;66.07;27.75;;;;;;;;;;5039749;28;20029;-65
2024/03/04 02:47:36;;;;;;;91.50;40.42;;;7.50;99.90;;;;;;5037944;28;20040;-65
2024/03/04 02:50:03;;;;;;;79.88;34.30;;;7.50;99.90;;;;;;5038948;28;20029;-64
2024/03/04 02:52:29;;;;;;;70.35;28.15;;;7.50;99.90;;;;;;5036148;28;20461;-65
2024/03/04 02:54:54;;;;;;;75.65;28.88;;;7.50;99.90;;;;;;5037223;28;20038;-65
2024/03/04 02:57:20;;;;;;;75.10;30.88;;;7.60;99.90;;;;;;5045275;28;20038;-65
2024/03/04 02:59:45;;;;;;;84.85;37.90;;;7.50;99.90;;;;;;5039685;28;20098;-65
2024/03/04 03:02:11;;;;;;;66.60;28.58;;;7.50;99.90;;;;;;5040202;28;20100;-65
2024/03/04 03:04:36;;;;;;;76.97;30.13;;;7.50;99.90;;;;;;5036392;28;20025;-65
2024/03/04 03:07:02;;;;;;;84.30;34.13;;;7.50;99.90;;;;;;5038473;28;20025;-65
2024/03/04 03:09:28;;;;;;;92.60;37.08;;;7.50;99.90;;;;;;5040476;28;20450;-64
2024/03/04 03:11:55;;;;;;;91.32;35.75;;;7.40;99.90;;;;;;5042341;28;20025;-65
2024/03/04 03:14:21;;;;;;;86.53;36.60;;;7.50;99.90;;;;;;5044117;28;20590;-64
2024/03/04 03:16:48;;;;;;;89.45;35.40;;;7.50;99.90;;;;;;5043571;28;20096;-64
2024/03/04 03:19:23;;;;;;;75.10;28.17;;;7.50;99.90;;;;;;5038352;28;20060;-65
2024/03/04 03:21:52;;;;;;;90.50;34.88;;;7.50;99.90;;;;;;5036462;28;20486;-65
2024/03/04 03:24:18;;;;;;;75.85;31.95;;;7.50;99.90;;;;;;5040182;28;20033;-65
2024/03/04 03:26:44;;;;;;;78.75;28.65;;;7.50;99.90;;;;;;5045918;28;20421;-65
2024/03/04 03:29:10;;;;;;;72.75;27.27;;;7.50;99.90;;;;;;5044193;28;20036;-64
2024/03/04 03:31:37;;;;;;;79.80;31.77;;;7.50;99.90;;;;;;5041417;28;20032;-65
2024/03/04 03:34:02;;;;;;;82.72;32.40;;;7.50;99.90;;;;;;5041026;28;20055;-65
2024/03/04 03:36:28;;;;;;;96.65;36.40;;;7.50;99.90;;;;;;5040762;28;20473;-65
2024/03/04 03:38:53;;;;;;;73.75;28.77;;;7.50;99.90;;;;;;5041573;28;20029;-65
2024/03/04 03:41:19;;;;;;;81.65;32.90;;;7.50;99.90;;;;;;5044920;28;20640;-65
2024/03/04 03:43:45;;;;;;;91.65;33.00;;;7.50;99.90;;;;;;5039210;28;20496;-63
2024/03/04 03:46:10;;;;;;;83.75;29.05;;;7.60;99.90;;;;;;5040660;28;20042;-63
2024/03/04 03:48:36;;;;;;;95.10;37.33;;;7.60;99.90;;;;;;5043224;28;20029;-62
2024/03/04 03:51:02;;;;;;;78.40;31.95;;;7.50;99.90;;;;;;5041655;28;20043;-65
2024/03/04 03:53:27;;;;;;;89.85;33.22;;;7.60;99.90;;;;;;5038544;28;20025;-65
2024/03/04 03:55:53;;;;;;;85.85;33.05;;;7.50;99.90;;;;;;5045494;28;20032;-64
2024/03/04 03:58:18;;;;;;;92.28;36.17;;;7.60;99.90;;;;;;5040994;28;20071;-65
2024/03/04 04:00:44;;;;;;;84.28;29.45;;;7.50;99.90;;;;;;5039485;28;20038;-64
2024/03/04 04:03:10;;;;;;;78.57;31.52;;;7.50;99.90;;;;;;5042253;28;20025;-65
2024/03/04 04:05:36;;;;;;;81.55;29.35;;;7.50;99.90;;;;;;5040613;28;20695;-65
2024/03/04 04:08:01;;;;;;;73.65;29.60;;;7.50;99.90;;;;;;5042456;28;20048;-65
2024/03/04 04:10:27;;;;;;;91.75;33.45;;;7.40;99.90;;;;;;5041877;28;20666;-64
2024/03/04 04:12:52;;;;;;;75.40;31.50;;;7.40;99.90;;;;;;5039017;28;20033;-65
2024/03/04 04:15:18;;;;;;;85.85;31.27;;;7.50;99.90;;;;;;5040535;28;20045;-64
2024/03/04 04:17:44;;;;;;;92.85;32.95;;;7.50;99.90;;;;;;5042160;28;20021;-65
2024/03/04 04:20:11;;;;;;;105.50;32.28;;;7.40;99.90;;;;;;5042447;28;20029;-64
2024/03/04 04:22:37;;;;;;;83.40;27.80;;;7.40;99.90;;;;;;5041204;28;20021;-64
2024/03/04 04:25:03;;;;;;;103.15;34.40;;;7.40;99.90;;;;;;5038438;28;20038;-64
2024/03/04 04:27:28;;;;;;;96.85;33.28;;;7.40;99.90;;;;;;5043689;28;20381;-65
2024/03/04 04:29:54;;;;;;;84.15;30.65;;;7.40;99.90;;;;;;5041221;28;20037;-64
2024/03/04 04:32:20;;;;;;;76.28;29.30;;;7.50;99.90;;;;;;5040480;28;20021;-64
2024/03/04 04:34:46;;;;;;;79.80;30.63;;;7.50;99.90;;;;;;5044563;28;20472;-64
2024/03/04 04:37:11;;;;;;;78.97;25.42;;;7.50;99.90;;;;;;5048929;28;20057;-65
2024/03/04 04:39:38;;;;;;;74.70;26.67;;;7.50;99.90;;;;;;5049394;28;20430;-64
2024/03/04 04:42:05;;;;;;;53.65;20.15;;;7.50;99.90;;;;;;5038135;28;20060;-64
2024/03/04 04:44:32;;;;;;;97.60;34.80;;;7.50;99.90;;;;;;5046595;28;20057;-65
2024/03/04 04:46:58;;;;;;;89.13;30.38;;;7.50;99.90;;;;;;5039281;28;20389;-65
2024/03/04 04:49:24;;;;;;;103.97;34.78;;;7.50;99.90;;;;;;5040824;28;20025;-64
2024/03/04 04:51:49;;;;;;;110.22;35.35;;;7.50;99.90;;;;;;5038434;28;20110;-64
2024/03/04 04:54:15;;;;;;;66.22;23.38;;;7.50;99.90;;;;;;5038462;28;20083;-64
2024/03/04 04:56:41;;;;;;;81.28;29.65;;;7.50;99.90;;;;;;5050588;28;20100;-64
2024/03/04 04:59:07;;;;;;;62.78;21.60;;;7.50;99.90;;;;;;5042453;28;20021;-64
2024/03/04 05:01:33;;;;;;;96.20;31.60;;;7.50;99.90;;;;;;5040350;28;20405;-64
2024/03/04 05:03:59;;;;;;;63.33;25.02;;;7.50;99.90;;;;;;5037530;28;20078;-64
2024/03/04 05:06:25;;;;;;;85.30;33.03;;;7.50;99.90;;;;;;5035252;28;20554;-64
2024/03/04 05:08:50;;;;;;;88.60;30.48;;;7.50;99.90;;;;;;5036459;28;20025;-64
2024/03/04 05:11:17;;;;;;;92.88;31.20;;;7.40;99.90;;;;;;5034290;28;20026;-64
2024/03/04 05:13:43;;;;;;;74.53;26.17;;;7.40;99.90;;;;;;5035044;28;20065;-63
2024/03/04 05:16:09;;;;;;;94.00;31.05;;;7.40;99.90;;;;;;5041086;28;20528;-64
2024/03/04 05:18:35;;;;;;;101.32;35.67;;;7.40;99.90;;;;;;5035898;28;20033;-63
2024/03/04 05:21:04;;;;;;;102.53;36.38;;;7.40;99.90;;;;;;5045829;28;20040;-63
2024/03/04 05:23:30;;;;;;;93.97;33.72;;;7.40;99.90;;;;;;5034523;28;20029;-63
2024/03/04 05:25:57;;;;;;;95.13;32.47;;;7.40;99.90;;;;;;5045818;28;20032;-63
2024/03/04 05:28:23;;;;;;;98.78;29.92;;;7.40;99.90;;;;;;5049210;28;20020;-63
2024/03/04 05:30:50;;;;;;;73.10;29.67;;;7.40;99.90;;;;;;5046542;28;20518;-62
2024/03/04 05:33:16;;;;;;;74.47;24.60;;;7.40;99.90;;;;;;5045996;28;20021;-63
2024/03/04 05:35:41;;;;;;;100.03;36.63;;;7.40;99.90;;;;;;5044068;28;20025;-63
2024/03/04 05:38:07;;;;;;;106.47;39.70;;;7.40;99.90;;;;;;5044558;28;20029;-62
2024/03/04 05:40:33;;;;;;;108.13;32.97;;;7.30;99.90;;;;;;5044368;28;20037;-63
2024/03/04 05:42:59;;;;;;;88.18;28.60;;;7.30;99.90;;;;;;5043773;28;20117;-64
2024/03/04 05:45:24;;;;;;;94.95;33.17;;;7.30;99.90;;;;;;5035740;28;20069;-64
2024/03/04 05:47:50;;;;;;;75.63;24.75;;;7.20;99.90;;;;;;5045065;28;20061;-63
2024/03/04 05:50:15;;;;;;;76.97;27.90;;;7.20;99.90;;;;;;5037546;28;20022;-63
2024/03/04 05:52:47;;;;;;;86.05;26.92;;;7.20;99.90;;;;;;5041239;28;20419;-64
2024/03/04 05:55:13;;;;;;;83.90;26.20;;;7.20;99.90;;;;;;5053279;28;20089;-64
2024/03/04 05:57:39;;;;;;;90.85;31.90;;;7.20;99.90;;;;;;5043518;28;20144;-64
2024/03/04 06:00:11;;;;;;;75.65;23.35;;;7.20;99.90;;;;;;5038150;28;20480;-64
2024/03/04 06:02:38;;;;;;;85.38;29.50;;;7.20;99.90;;;;;;5040676;28;20030;-64
2024/03/04 06:05:05;;;;;;;73.43;22.83;;;7.20;99.90;;;;;;5043595;28;20018;-64
2024/03/04 06:07:30;;;;;;;91.60;24.20;;;7.20;99.90;;;;;;5036817;28;20540;-65
2024/03/04 06:09:56;;;;;;;83.53;23.85;;;7.10;99.90;;;;;;5039871;28;20107;-64
2024/03/04 06:12:21;;;;;;;73.30;20.90;;;7.10;99.90;;;;;;5036805;28;20441;-64
2024/03/04 06:14:47;;;;;;;90.65;26.05;;;7.10;99.90;;;;;;5042310;28;20133;-64
2024/03/04 06:17:13;;;;;;;101.97;35.47;;;7.10;99.90;;;;;;5046126;28;20037;-65
2024/03/04 06:19:38;;;;;;;74.25;24.75;;;7.10;99.90;;;;;;5038181;28;20033;-65
2024/03/04 06:22:04;;;;;;;78.32;23.92;;;7.10;99.90;;;;;;5039921;28;20618;-65
2024/03/04 06:24:34;;;;;;;93.50;26.85;;;7.00;99.90;;;;;;5039527;28;20083;-64
2024/03/04 06:27:02;;;;;;;96.78;29.00;;;6.30;99.90;;;;;;5038042;28;20022;-65
2024/03/04 06:29:30;;;;;;;104.43;31.08;;;7.00;99.90;;;;;;5037025;28;20025;-64
2024/03/04 06:31:56;;;;;;;112.75;33.88;;;7.00;99.90;;;;;;5040162;28;20021;-64
2024/03/04 06:34:22;;;;;;;116.55;34.60;;;7.00;99.90;;;;;;5034745;28;20068;-65
2024/03/04 06:36:48;;;;;;;110.70;35.60;;;7.00;99.90;;;;;;5036501;28;20033;-64
2024/03/04 06:39:16;;;;;;;73.90;23.05;;;7.00;99.90;;;;;;5044230;28;20037;-65
2024/03/04 06:41:43;;;;;;;94.97;27.48;;;7.00;99.90;;;;;;5034902;28;20057;-64
2024/03/04 06:44:09;;;;;;;81.85;24.48;;;7.10;99.90;;;;;;5035820;28;20436;-65
2024/03/04 06:46:35;;;;;;;93.78;26.77;;;7.10;99.90;;;;;;5047498;28;20029;-66
2024/03/04 06:49:00;;;;;;;118.30;30.95;;;7.10;99.90;;;;;;5041286;28;20369;-64
2024/03/04 06:51:27;;;;;;;104.38;29.83;;;7.10;99.90;;;;;;5039809;28;20029;-63
2024/03/04 06:53:53;;;;;;;106.47;30.95;;;7.10;99.90;;;;;;5039200;28;20025;-64
2024/03/04 06:56:21;;;;;;;92.68;30.23;;;7.10;99.90;;;;;;5040599;28;20090;-64
2024/03/04 06:58:46;;;;;;;97.97;28.05;;;7.10;99.90;;;;;;5044506;28;20029;-63
2024/03/04 07:01:17;;;;;;;85.28;26.85;;;7.10;99.90;;;;;;5039581;28;20116;-65
2024/03/04 07:03:45;;;;;;;83.53;26.08;;;7.10;99.90;;;;;;5049074;28;20055;-65
2024/03/04 07:06:13;;;;;;;81.07;24.23;;;7.10;99.90;;;;;;5044524;28;20063;-64
2024/03/04 07:08:41;;;;;;;66.45;22.73;;;7.20;99.90;;;;;;5045824;28;20024;-63
2024/03/04 07:11:08;;;;;;;83.07;27.45;;;7.10;99.90;;;;;;5039902;28;20036;-63
2024/03/04 07:13:34;;;;;;;86.70;24.13;;;7.20;99.90;;;;;;5038776;28;20041;-64
2024/03/04 07:15:59;;;;;;;65.60;21.52;;;7.20;99.90;;;;;;5043634;28;20533;-64
2024/03/04 07:18:31;;;;;;;56.92;19.33;;;7.20;99.90;;;;;;5039205;28;20025;-64
2024/03/04 07:21:00;;;;;;;79.20;27.55;;;7.30;99.90;;;;;;5045428;28;20129;-63
2024/03/04 07:23:25;;;;;;;78.07;25.23;;;7.30;99.90;;;;;;5045610;28;20032;-64
2024/03/04 07:25:51;;;;;;;83.50;27.45;;;7.20;99.90;;;;;;5053029;28;20033;-63
2024/03/04 07:28:18;;;;;;;69.93;20.83;;;7.30;99.90;;;;;;5043317;28;20030;-63
2024/03/04 07:30:44;;;;;;;62.08;19.40;;;7.30;99.90;;;;;;5038263;28;20021;-63
2024/03/04 07:33:11;;;;;;;47.70;16.92;;;7.30;99.90;;;;;;5038834;28;20025;-63
2024/03/04 07:35:37;;;;;;;75.88;24.70;;;7.30;99.90;;;;;;5042459;28;20013;-63
2024/03/04 07:38:03;;;;;;;64.40;23.00;;;7.30;99.90;;;;;;5041524;28;20017;-63
2024/03/04 07:40:29;;;;;;;59.42;17.25;;;7.30;99.90;;;;;;5040242;28;20047;-63
2024/03/04 07:42:54;;;;;;;55.85;21.30;;;7.30;99.90;;;;;;5037309;28;20099;-63
2024/03/04 07:45:20;;;;;;;68.82;21.70;;;7.30;99.90;;;;;;5042282;28;20035;-63
2024/03/04 07:47:46;;;;;;;83.88;25.42;;;7.30;99.90;;;;;;5038276;28;20024;-63
2024/03/04 07:50:11;;;;;;;92.43;28.38;;;7.30;99.90;;;;;;5041009;28;20029;-63
2024/03/04 07:52:37;;;;;;;75.35;23.42;;;7.30;99.90;;;;;;5040935;28;20104;-64
2024/03/04 07:55:04;;;;;;;58.35;19.83;;;7.30;99.90;;;;;;5036983;28;20033;-63
2024/03/04 07:57:30;;;;;;;77.82;23.17;;;7.30;99.90;;;;;;5052472;28;20393;-64
2024/03/04 07:59:56;;;;;;;89.40;27.63;;;7.30;99.90;;;;;;5038981;28;20029;-63
2024/03/04 08:02:22;;;;;;;100.88;26.38;;;7.30;99.90;;;;;;5040969;28;20040;-64
2024/03/04 08:04:47;;;;;;;102.70;26.55;;;7.30;99.90;;;;;;5042237;28;20025;-64
2024/03/04 08:07:13;;;;;;;71.78;22.92;;;7.30;99.90;;;;;;5037991;28;20045;-64
2024/03/04 08:09:39;;;;;;;86.70;25.83;;;7.30;99.90;;;;;;5041124;28;20022;-63
2024/03/04 08:12:06;;;;;;;93.95;26.42;;;7.30;99.90;;;;;;5040483;28;20021;-63
2024/03/04 08:14:31;;;;;;;56.00;18.40;;;7.30;99.90;;;;;;5036741;28;20191;-64
2024/03/04 08:16:57;;;;;;;101.38;29.05;;;7.30;99.90;;;;;;5038028;28;20137;-64
2024/03/04 08:19:23;;;;;;;74.60;27.35;;;7.30;99.90;;;;;;5041834;28;20040;-64
2024/03/04 08:21:48;;;;;;;74.55;23.65;;;7.30;99.90;;;;;;5037201;28;20027;-64
2024/03/04 08:24:14;;;;;;;93.32;25.17;;;7.20;99.90;;;;;;5036475;28;20125;-64
2024/03/04 08:26:40;;;;;;;99.32;29.73;;;7.30;99.90;;;;;;5047438;28;20029;-64
2024/03/04 08:29:06;;;;;;;76.18;22.60;;;7.30;99.90;;;;;;5037389;28;20028;-64
2024/03/04 08:31:32;;;;;;;87.70;25.73;;;7.20;99.90;;;;;;5040492;28;20014;-64
2024/03/04 08:33:58;;;;;;;101.90;28.10;;;7.20;99.90;;;;;;5039115;28;20068;-65
2024/03/04 08:36:23;;;;;;;98.03;29.35;;;7.30;99.90;;;;;;5042144;28;20026;-64
2024/03/04 08:38:49;;;;;;;84.57;25.20;;;7.30;99.90;;;;;;5041433;28;20145;-64
2024/03/04 08:41:16;;;;;;;87.05;27.67;;;7.20;99.90;;;;;;5038343;28;20063;-64
2024/03/04 08:43:41;;;;;;;97.53;30.75;;;7.30;99.90;;;;;;5037166;28;20021;-64
2024/03/04 08:46:07;;;;;;;78.72;25.50;;;7.30;99.90;;;;;;5037279;28;20029;-64
2024/03/04 08:48:33;;;;;;;81.20;24.70;;;7.20;99.90;;;;;;5039885;28;20305;-64
2024/03/04 08:50:58;;;;;;;81.57;23.05;;;7.20;99.90;;;;;;5039654;28;20523;-65
2024/03/04 08:53:24;;;;;;;53.83;18.17;;;7.30;99.90;;;;;;5038610;28;20430;-64
2024/03/04 08:55:50;;;;;;;52.47;18.75;;;7.30;99.90;;;;;;5042827;28;20021;-64
2024/03/04 08:58:16;;;;;;;67.20;20.70;;;7.30;99.90;;;;;;5040281;28;20491;-64
2024/03/04 09:00:41;;;;;;;65.20;22.17;;;7.30;99.90;;;;;;5037032;28;20022;-64
2024/03/04 09:03:07;;;;;;;61.33;18.60;;;7.30;99.90;;;;;;5039773;28;20432;-63
2024/03/04 09:05:33;;;;;;;62.30;21.08;;;7.40;99.90;;;;;;5039006;28;20117;-63
2024/03/04 09:08:03;;;;;;;58.05;21.98;;;7.40;99.90;;;;;;5038967;28;20075;-63
2024/03/04 09:10:29;;;;;;;70.95;20.75;;;7.40;99.90;;;;;;5039686;28;20017;-63
2024/03/04 09:12:56;;;;;;;61.97;21.20;;;7.40;99.90;;;;;;5034274;28;20039;-63
2024/03/04 09:15:22;;;;;;;60.53;19.67;;;7.50;99.90;;;;;;5040257;28;20522;-64
2024/03/04 09:17:49;;;;;;;58.58;19.80;;;7.50;99.90;;;;;;5037805;28;20025;-64
2024/03/04 09:20:15;;;;;;;50.97;18.00;;;7.50;99.90;;;;;;5039301;28;20116;-63
2024/03/04 09:22:40;;;;;;;61.58;19.65;;;7.70;99.90;;;;;;5037517;28;20116;-63
2024/03/04 09:25:06;;;;;;;54.70;18.20;;;7.80;99.90;;;;;;5036135;28;20032;-63
2024/03/04 09:27:32;;;;;;;63.08;20.45;;;7.80;99.90;;;;;;5040892;28;20401;-63
2024/03/04 09:29:58;;;;;;;49.13;15.50;;;7.90;99.90;;;;;;5038790;28;20057;-63
2024/03/04 09:32:25;;;;;;;52.63;19.75;;;7.80;99.90;;;;;;5039986;28;20025;-63
2024/03/04 09:34:51;;;;;;;59.47;20.35;;;7.80;99.90;;;;;;5037930;28;20017;-63
2024/03/04 09:37:16;;;;;;;54.13;18.05;;;7.80;99.90;;;;;;5038863;28;20480;-63
2024/03/04 09:39:42;;;;;;;57.22;19.17;;;7.90;99.90;;;;;;5038888;28;20452;-63
2024/03/04 09:42:08;;;;;;;56.58;18.58;;;7.80;99.90;;;;;;5035595;28;20063;-63
2024/03/04 09:44:34;;;;;;;53.15;19.92;;;7.80;99.90;;;;;;5039914;28;20354;-63
2024/03/04 09:47:00;;;;;;;54.78;19.10;;;7.80;99.90;;;;;;5037997;28;20066;-63
2024/03/04 09:49:30;;;;;;;58.53;18.58;;;7.80;99.90;;;;;;5036998;28;20021;-63
2024/03/04 09:52:01;;;;;;;45.75;16.80;;;7.80;99.90;;;;;;5038229;28;20025;-64
2024/03/04 09:54:30;;;;;;;34.97;13.38;;;7.80;99.90;;;;;;5037267;28;20043;-64
2024/03/04 09:56:57;;;;;;;56.13;17.80;;;7.80;99.90;;;;;;5042222;28;20075;-63
2024/03/04 09:59:22;;;;;;;47.38;16.33;;;7.80;99.90;;;;;;5037536;28;20140;-63
2024/03/04 10:01:48;;;;;;;52.05;19.58;;;7.80;99.90;;;;;;5035283;28;20117;-63
2024/03/04 10:04:15;;;;;;;50.30;17.85;;;7.90;99.90;;;;;;5040330;28;20037;-64
2024/03/04 10:06:41;;;;;;;53.33;18.33;;;8.00;99.90;;;;;;5036685;28;20113;-64
2024/03/04 10:09:12;;;;;;;52.67;17.98;;;7.90;99.90;;;;;;5039203;28;20109;-64
2024/03/04 10:11:42;;;;;;;53.75;19.17;;;7.90;99.90;;;;;;5036556;28;20033;-63
2024/03/04 10:14:08;;;;;;;55.15;18.20;;;8.00;99.90;;;;;;5039478;28;20071;-63
2024/03/04 10:16:34;;;;;;;52.17;16.67;;;7.90;99.90;;;;;;5035519;28;20045;-63
2024/03/04 10:19:03;;;;;;;53.95;18.92;;;7.90;99.90;;;;;;5038849;28;20028;-64
2024/03/04 10:21:32;;;;;;;50.05;19.33;;;7.90;99.90;;;;;;5039433;28;20603;-63
2024/03/04 10:24:09;;;;;;;50.33;17.92;;;7.90;99.90;;;;;;5035616;28;20036;-64
2024/03/04 10:26:46;;;;;;;45.55;16.50;;;8.00;99.90;;;;;;5041578;28;20037;-64
2024/03/04 10:29:15;;;;;;;50.40;17.50;;;8.00;99.90;;;;;;5036216;28;20024;-63
2024/03/04 10:31:54;;;;;;;47.33;15.38;;;8.00;99.90;;;;;;5039644;28;20024;-63
2024/03/04 10:34:20;;;;;;;48.15;18.60;;;8.10;99.90;;;;;;5036939;28;20030;-63
2024/03/04 10:36:48;;;;;;;49.55;17.05;;;8.10;99.90;;;;;;5039678;28;20034;-63
2024/03/04 10:39:17;;;;;;;48.22;16.52;;;8.00;99.90;;;;;;5042017;28;20039;-64
2024/03/04 10:41:46;;;;;;;50.40;16.17;;;7.90;99.90;;;;;;5039283;28;20105;-62
2024/03/04 10:44:23;;;;;;;40.63;14.82;;;7.80;99.90;;;;;;5037684;28;20029;-62
2024/03/04 10:46:52;;;;;;;50.60;17.90;;;7.70;99.90;;;;;;5035337;28;20545;-63
2024/03/04 10:49:19;;;;;;;49.05;17.92;;;7.80;99.90;;;;;;5037677;28;20354;-62
2024/03/04 10:51:45;;;;;;;47.60;16.63;;;7.90;99.90;;;;;;5036623;28;20025;-62
2024/03/04 10:54:10;;;;;;;48.78;16.20;;;7.80;99.90;;;;;;5033489;28;20389;-63
2024/03/04 10:56:45;;;;;;;50.83;15.25;;;7.90;99.90;;;;;;5042180;28;20025;-63
2024/03/04 10:59:13;;;;;;;37.53;12.95;;;8.00;99.90;;;;;;5039284;28;20222;-62
2024/03/04 11:01:39;;;;;;;46.22;16.75;;;8.00;99.90;;;;;;5039040;28;20056;-63
2024/03/04 11:04:05;;;;;;;46.08;16.17;;;8.00;99.90;;;;;;5034359;28;20079;-63
2024/03/04 11:06:32;;;;;;;41.80;14.82;;;8.00;99.90;;;;;;5036028;28;20057;-63
2024/03/04 11:08:59;;;;;;;31.45;13.18;;;8.00;99.90;;;;;;5036288;28;20128;-63
2024/03/04 11:11:44;;;;;;;41.00;17.02;;;8.10;99.90;;;;;;5036811;28;20112;-63
2024/03/04 11:14:17;;;;;;;43.20;15.27;;;8.00;99.90;;;;;;5035379;28;20072;-63
2024/03/04 11:16:48;;;;;;;36.38;12.75;;;8.00;99.90;;;;;;5037001;28;20064;-63
2024/03/04 11:19:37;;;;;;;53.88;19.25;;;8.00;99.90;;;;;;5035364;28;20017;-62
2024/03/04 11:22:04;;;;;;;53.65;18.55;;;8.00;99.90;;;;;;5034888;28;20076;-62
2024/03/04 11:24:31;;;;;;;52.78;17.35;;;8.00;99.90;;;;;;5035156;28;20029;-63
2024/03/04 11:26:57;;;;;;;55.30;19.83;;;8.10;99.90;;;;;;5036753;28;20041;-63
2024/03/04 11:29:24;;;;;;;57.13;21.05;;;7.90;99.90;;;;;;5038131;28;20087;-63
2024/03/04 11:31:56;;;;;;;67.93;22.23;;;7.90;99.90;;;;;;5037990;28;20045;-63
2024/03/04 11:34:22;;;;;;;65.07;22.00;;;7.90;99.90;;;;;;5044407;28;20028;-62
2024/03/04 11:36:51;;;;;;;66.03;19.75;;;7.90;99.90;;;;;;5042146;28;20087;-63
2024/03/04 11:39:21;;;;;;;42.80;15.88;;;7.90;99.90;;;;;;5043495;28;20078;-63
2024/03/04 11:41:48;;;;;;;62.37;19.03;;;7.90;99.90;;;;;;5040977;28;20087;-64
2024/03/04 11:44:18;;;;;;;57.15;21.02;;;7.90;99.90;;;;;;5039566;28;20032;-63
2024/03/04 11:46:45;;;;;;;65.22;20.75;;;7.80;99.90;;;;;;5040143;28;20025;-63
2024/03/04 11:49:24;;;;;;;50.30;17.10;;;7.80;99.90;;;;;;5040277;28;20139;-64
2024/03/04 11:52:01;;;;;;;63.07;21.67;;;7.80;99.90;;;;;;5040834;28;20025;-63
2024/03/04 11:54:36;;;;;;;52.80;20.15;;;7.90;99.90;;;;;;5036714;28;20279;-64
2024/03/04 11:57:06;;;;;;;60.15;22.30;;;7.80;99.90;;;;;;5039863;28;20041;-64
2024/03/04 11:59:32;;;;;;;56.70;21.38;;;7.80;99.90;;;;;;5037887;28;20108;-64
2024/03/04 12:01:57;;;;;;;62.67;23.20;;;7.80;99.90;;;;;;5041949;28;20120;-64
2024/03/04 12:04:25;;;;;;;67.18;21.83;;;7.80;99.90;;;;;;5039043;28;20832;-64
2024/03/04 12:06:54;;;;;;;64.90;25.05;;;7.80;99.90;;;;;;5040837;28;20059;-64
2024/03/04 12:09:23;;;;;;;63.25;22.40;;;7.90;99.90;;;;;;5037941;28;20483;-64
2024/03/04 12:11:48;;;;;;;45.58;17.70;;;7.90;99.90;;;;;;5040582;28;20018;-64
2024/03/04 12:14:14;;;;;;;44.45;17.85;;;7.90;99.90;;;;;;5039932;28;20135;-63
2024/03/04 12:16:40;;;;;;;56.80;20.98;;;7.90;99.90;;;;;;5037737;28;20132;-64
2024/03/04 12:19:06;;;;;;;57.40;20.80;;;7.90;99.90;;;;;;5039269;28;20488;-63
2024/03/04 12:21:32;;;;;;;44.63;15.00;;;7.90;99.90;;;;;;5038666;28;20018;-63
2024/03/04 12:23:58;;;;;;;63.17;20.77;;;7.90;99.90;;;;;;5036704;28;20022;-64
2024/03/04 12:26:24;;;;;;;62.55;21.52;;;7.90;99.90;;;;;;5042064;28;20029;-64
2024/03/04 12:29:08;;;;;;;60.92;22.95;;;7.90;99.90;;;;;;5037055;28;20022;-64
2024/03/04 12:31:37;;;;;;;58.72;21.67;;;7.90;99.90;;;;;;5038502;28;20025;-63
2024/03/04 12:34:04;;;;;;;57.08;19.25;;;8.00;99.90;;;;;;5041128;28;20021;-63